Terminal Aerodrome Forecast
Issued by NWS

Home | Current Version | Previous Version | Text Only | Print | Product List | Glossary On
Versions: 1 2 3 4 5 6 7 8 9 10 11 12 13 14 15 16 17 18 19 20 21 22 23 24 25 26 27 28 29 30 31 32
000
FTUS43 KILX 191050 AAA
TAFCMI
TAF AMD
KCMI 191050Z 1911/2006 13007KT 2SM BR BKN120
     FM191400 12009KT 3SM BR BKN035
     FM191800 12008KT 5SM -SHRA BR OVC025
     FM192100 11008KT 2SM -SHRA BR OVC008
     FM200000 10009KT 2SM SHRA BR OVC003=

USA.gov is the U.S. government's official web portal to all federal, state and local government web resources and services.